createdAt,value
2019-05-02T00:00:16.803Z,10.70
2019-05-02T00:02:46.712Z,10.70
2019-05-02T00:05:18.371Z,10.60
2019-05-02T00:07:48.309Z,10.60
2019-05-02T00:10:20.053Z,10.60
2019-05-02T00:12:50.540Z,10.60
2019-05-02T00:15:21.794Z,10.60
2019-05-02T00:17:51.505Z,10.60
2019-05-02T00:20:25.432Z,10.50
2019-05-02T00:22:52.319Z,10.50
2019-05-02T00:25:24.370Z,10.50
2019-05-02T00:27:53.871Z,10.40
2019-05-02T00:30:23.698Z,10.40
2019-05-02T00:32:58.305Z,10.40
2019-05-02T00:35:25.789Z,10.30
2019-05-02T00:37:57.468Z,10.30
2019-05-02T00:40:27.772Z,10.30
2019-05-02T00:42:58.351Z,10.40
2019-05-02T00:45:28.475Z,10.30
2019-05-02T00:48:11.718Z,10.30
2019-05-02T00:50:45.394Z,10.20
2019-05-02T00:53:13.543Z,10.30
2019-05-02T00:55:43.468Z,10.20
2019-05-02T00:58:12.860Z,10.10
2019-05-02T01:00:53.144Z,10.10
2019-05-02T01:03:22.083Z,10.10
2019-05-02T01:05:51.542Z,10.00
2019-05-02T01:08:20.897Z,10.00
2019-05-02T01:10:52.145Z,10.00
2019-05-02T01:13:35.990Z,10.00
2019-05-02T01:16:05.482Z,9.90
2019-05-02T01:18:37.209Z,9.90
2019-05-02T01:21:06.233Z,10.00
2019-05-02T01:23:35.627Z,9.90
2019-05-02T01:26:07.322Z,9.80
2019-05-02T01:28:40.962Z,9.80
2019-05-02T01:31:20.166Z,9.80
2019-05-02T01:33:56.707Z,9.80
2019-05-02T01:36:41.032Z,9.80
2019-05-02T01:39:11.164Z,9.70
2019-05-02T01:41:40.679Z,9.70
2019-05-02T01:44:10.139Z,9.70
2019-05-02T01:46:39.496Z,9.70
2019-05-02T01:49:08.990Z,9.70
2019-05-02T01:51:41.972Z,9.60
2019-05-02T01:54:11.301Z,9.60
2019-05-02T01:56:40.995Z,9.50
2019-05-02T01:59:10.379Z,9.50
2019-05-02T02:01:39.875Z,9.50
2019-05-02T02:04:09.288Z,9.50
2019-05-02T02:06:43.243Z,9.50
2019-05-02T02:09:11.247Z,9.40
2019-05-02T02:11:40.652Z,9.40
2019-05-02T02:14:13.446Z,9.40
2019-05-02T02:16:41.165Z,9.40
2019-05-02T02:19:15.383Z,9.40
2019-05-02T02:21:46.833Z,9.40
2019-05-02T02:24:21.120Z,9.30
2019-05-02T02:26:49.926Z,9.30
2019-05-02T02:29:19.561Z,9.20
2019-05-02T02:31:48.971Z,9.20
2019-05-02T02:34:21.408Z,9.20
2019-05-02T02:36:49.951Z,9.10
2019-05-02T02:39:19.521Z,9.20
2019-05-02T02:41:52.329Z,9.10
2019-05-02T02:44:33.776Z,9.10
2019-05-02T02:47:01.356Z,9.10
2019-05-02T02:49:30.925Z,9.00
2019-05-02T02:52:05.037Z,9.10
2019-05-02T02:54:36.489Z,9.10
2019-05-02T02:57:02.438Z,9.10
2019-05-02T02:59:31.825Z,9.00
2019-05-02T03:02:09.000Z,9.00
2019-05-02T03:04:33.275Z,8.90
2019-05-02T03:07:02.627Z,8.90
2019-05-02T03:09:32.216Z,8.90
2019-05-02T03:12:21.648Z,8.80
2019-05-02T03:14:59.147Z,8.80
2019-05-02T03:17:29.727Z,8.80
2019-05-02T03:20:01.771Z,8.70
2019-05-02T03:22:34.965Z,8.80
2019-05-02T03:25:01.306Z,8.70
2019-05-02T03:27:37.304Z,8.70
2019-05-02T03:30:03.488Z,8.70
2019-05-02T03:32:36.009Z,8.70
2019-05-02T03:35:05.195Z,8.70
2019-05-02T03:37:34.582Z,8.70
2019-05-02T03:40:04.191Z,8.70
2019-05-02T03:42:43.687Z,8.70
2019-05-02T03:45:05.515Z,8.70
2019-05-02T03:47:36.948Z,8.60
2019-05-02T03:50:09.235Z,8.60
2019-05-02T03:52:43.916Z,8.60
2019-05-02T03:55:10.000Z,8.50
2019-05-02T03:57:42.156Z,8.60
2019-05-02T04:00:13.623Z,8.50
2019-05-02T04:02:43.670Z,8.50
2019-05-02T04:05:13.212Z,8.50
2019-05-02T04:07:42.898Z,8.50
2019-05-02T04:10:19.711Z,8.50
2019-05-02T04:12:45.541Z,8.50
2019-05-02T04:15:16.077Z,8.50
2019-05-02T04:17:46.133Z,8.40
2019-05-02T04:20:15.752Z,8.40
2019-05-02T04:22:49.089Z,8.40
2019-05-02T04:25:16.499Z,8.40
2019-05-02T04:27:46.164Z,8.40
2019-05-02T04:30:15.725Z,8.50
2019-05-02T04:32:49.612Z,8.50
2019-05-02T04:35:16.618Z,8.50
2019-05-02T04:37:46.037Z,8.50
2019-05-02T04:40:17.984Z,8.40
2019-05-02T04:42:51.251Z,8.40
2019-05-02T04:45:26.400Z,8.50
2019-05-02T04:47:58.264Z,8.40
2019-05-02T04:50:25.295Z,8.70
2019-05-02T04:52:53.751Z,8.60
2019-05-02T04:55:29.102Z,8.60
2019-05-02T04:57:53.747Z,8.60
2019-05-02T05:00:29.172Z,8.50
2019-05-02T05:02:58.525Z,8.50
2019-05-02T05:05:31.094Z,8.60
2019-05-02T05:07:59.236Z,8.60
2019-05-02T05:10:40.341Z,8.70
2019-05-02T05:12:59.712Z,8.60
2019-05-02T05:15:39.842Z,8.70
2019-05-02T05:18:04.386Z,8.80
2019-05-02T05:20:31.393Z,8.80
2019-05-02T05:23:00.798Z,8.90
2019-05-02T05:25:44.189Z,8.90
2019-05-02T05:28:13.551Z,8.80
2019-05-02T05:30:45.329Z,8.80
2019-05-02T05:33:15.098Z,8.90
2019-05-02T05:35:48.872Z,8.90
2019-05-02T05:38:18.180Z,9.00
2019-05-02T05:40:47.953Z,9.00
2019-05-02T05:43:20.602Z,8.80
2019-05-02T05:45:56.124Z,8.90
2019-05-02T05:48:21.240Z,9.10
2019-05-02T05:50:50.576Z,9.10
2019-05-02T05:53:21.418Z,9.20
2019-05-02T05:55:53.551Z,9.30
2019-05-02T05:58:22.228Z,9.30
2019-05-02T06:00:55.433Z,9.40
2019-05-02T06:03:22.717Z,9.40
2019-05-02T06:05:52.141Z,9.50
2019-05-02T06:08:21.750Z,9.50
2019-05-02T06:10:51.100Z,9.60
2019-05-02T06:13:20.443Z,9.70
2019-05-02T06:16:01.642Z,9.60
2019-05-02T06:18:20.832Z,9.70
2019-05-02T06:20:50.243Z,9.90
2019-05-02T06:23:19.795Z,10.00
2019-05-02T06:25:49.404Z,10.00
2019-05-02T06:28:18.744Z,10.00
2019-05-02T06:30:48.144Z,10.00
2019-05-02T06:33:17.498Z,10.00
2019-05-02T06:35:46.849Z,10.00
2019-05-02T06:38:16.174Z,10.10
2019-05-02T06:40:46.662Z,10.20
2019-05-02T06:43:17.233Z,10.30
2019-05-02T06:45:46.784Z,10.30
2019-05-02T06:48:17.787Z,10.40
2019-05-02T06:50:47.204Z,10.60
2019-05-02T06:53:16.578Z,10.70
2019-05-02T06:55:46.948Z,10.90
2019-05-02T06:58:16.522Z,11.00
2019-05-02T07:00:56.630Z,11.10
2019-05-02T07:03:17.186Z,11.20
2019-05-02T07:05:49.068Z,11.20
2019-05-02T07:08:17.840Z,11.40
2019-05-02T07:10:47.239Z,11.70
2019-05-02T07:13:17.187Z,11.90
2019-05-02T07:15:48.682Z,12.10
2019-05-02T07:18:20.016Z,12.20
2019-05-02T07:20:51.814Z,12.20
2019-05-02T07:23:21.268Z,12.30
2019-05-02T07:25:50.868Z,12.40
2019-05-02T07:28:20.279Z,12.40
2019-05-02T07:30:49.657Z,12.50
2019-05-02T07:33:19.057Z,12.60
2019-05-02T07:35:48.607Z,12.70
2019-05-02T07:38:20.241Z,12.80
2019-05-02T07:40:53.067Z,12.90
2019-05-02T07:43:22.223Z,13.00
2019-05-02T07:45:51.260Z,12.90
2019-05-02T07:48:20.850Z,12.90
2019-05-02T07:50:53.266Z,12.90
2019-05-02T07:53:23.983Z,13.00
2019-05-02T07:55:54.686Z,13.10
2019-05-02T07:58:24.095Z,13.20
2019-05-02T08:00:53.447Z,13.20
2019-05-02T08:03:22.874Z,13.20
2019-05-02T08:05:54.472Z,13.30
2019-05-02T08:08:25.065Z,13.40
2019-05-02T08:11:01.437Z,13.40
2019-05-02T08:13:25.859Z,13.50
2019-05-02T08:15:55.278Z,13.60
2019-05-02T08:18:25.087Z,13.80
2019-05-02T08:20:57.376Z,13.80
2019-05-02T08:23:27.842Z,13.80
2019-05-02T08:25:59.820Z,13.80
2019-05-02T08:28:30.860Z,13.90
2019-05-02T08:31:00.216Z,14.10
2019-05-02T08:33:34.898Z,14.10
2019-05-02T08:36:00.976Z,14.40
2019-05-02T08:38:30.540Z,14.50
2019-05-02T08:41:00.064Z,14.60
2019-05-02T08:43:29.813Z,14.60
2019-05-02T08:45:59.206Z,14.60
2019-05-02T08:48:28.619Z,14.70
2019-05-02T08:50:58.048Z,14.90
2019-05-02T08:53:28.661Z,15.00
2019-05-02T08:55:58.224Z,15.10
2019-05-02T08:58:27.557Z,15.40
2019-05-02T09:00:56.923Z,15.40
2019-05-02T09:03:28.036Z,15.60
2019-05-02T09:06:05.575Z,15.50
2019-05-02T09:08:28.819Z,15.60
2019-05-02T09:10:58.435Z,15.40
2019-05-02T09:13:29.514Z,15.20
2019-05-02T09:15:59.096Z,15.10
2019-05-02T09:18:35.275Z,15.30
2019-05-02T09:20:59.495Z,15.50
2019-05-02T09:23:35.053Z,15.70
2019-05-02T09:25:59.929Z,15.80
2019-05-02T09:28:31.882Z,15.90
2019-05-02T09:31:04.980Z,15.80
2019-05-02T09:33:32.336Z,15.90
2019-05-02T09:36:02.421Z,16.10
2019-05-02T09:38:32.958Z,16.20
2019-05-02T09:41:15.394Z,16.20
2019-05-02T09:43:34.881Z,16.40
2019-05-02T09:46:07.279Z,16.60
2019-05-02T09:48:35.848Z,16.60
2019-05-02T09:51:12.902Z,16.90
2019-05-02T09:53:36.477Z,16.80
2019-05-02T09:56:06.055Z,16.90
2019-05-02T09:58:35.608Z,17.00
2019-05-02T10:01:06.947Z,17.20
2019-05-02T10:03:36.505Z,17.30
2019-05-02T10:06:16.498Z,17.60
2019-05-02T10:08:43.442Z,17.40
2019-05-02T10:11:11.822Z,17.10
2019-05-02T10:13:42.435Z,17.50
2019-05-02T10:16:12.300Z,17.80
2019-05-02T10:18:43.112Z,17.80
2019-05-02T10:21:16.942Z,17.90
2019-05-02T10:23:43.825Z,17.90
2019-05-02T10:26:19.863Z,17.30
2019-05-02T10:28:49.378Z,17.50
2019-05-02T10:31:16.061Z,17.60
2019-05-02T10:33:45.484Z,17.80
2019-05-02T10:36:19.831Z,18.10
2019-05-02T10:38:48.996Z,18.20
2019-05-02T10:41:16.938Z,18.30
2019-05-02T10:43:46.979Z,18.30
2019-05-02T10:46:37.785Z,18.20
2019-05-02T10:49:12.659Z,19.00
2019-05-02T10:51:49.049Z,19.50
2019-05-02T10:54:13.031Z,18.50
2019-05-02T10:56:42.459Z,17.60
2019-05-02T10:59:11.942Z,17.30
2019-05-02T11:01:43.377Z,17.50
2019-05-02T11:04:14.427Z,18.00
2019-05-02T11:06:46.344Z,18.00
2019-05-02T11:09:16.858Z,18.30
2019-05-02T11:11:46.152Z,18.00
2019-05-02T11:14:17.707Z,17.80
2019-05-02T11:16:57.577Z,17.50
2019-05-02T11:19:34.764Z,17.30
2019-05-02T11:22:04.911Z,17.30
2019-05-02T11:24:34.422Z,17.60
2019-05-02T11:27:04.957Z,18.10
2019-05-02T11:29:34.558Z,17.90
2019-05-02T11:32:04.692Z,18.20
2019-05-02T11:34:35.596Z,18.10
2019-05-02T11:37:05.162Z,18.20
2019-05-02T11:39:44.327Z,18.20
2019-05-02T11:42:06.300Z,18.50
2019-05-02T11:44:35.797Z,17.90
2019-05-02T11:47:12.605Z,18.10
2019-05-02T11:49:46.730Z,18.30
2019-05-02T11:52:16.212Z,18.20
2019-05-02T11:54:48.437Z,19.00
2019-05-02T11:57:22.805Z,19.10
2019-05-02T11:59:47.774Z,19.40
2019-05-02T12:02:36.612Z,18.80
2019-05-02T12:05:12.771Z,18.50
2019-05-02T12:07:42.415Z,18.50
2019-05-02T12:10:12.540Z,18.70
2019-05-02T12:12:42.958Z,18.80
2019-05-02T12:15:12.834Z,19.00
2019-05-02T12:17:42.203Z,19.20
2019-05-02T12:20:11.946Z,19.50
2019-05-02T12:22:42.394Z,19.90
2019-05-02T12:25:12.695Z,19.90
2019-05-02T12:27:43.485Z,20.20
2019-05-02T12:30:13.453Z,20.10
2019-05-02T12:32:42.878Z,19.80
2019-05-02T12:35:12.482Z,19.30
2019-05-02T12:37:42.394Z,19.40
2019-05-02T12:40:12.365Z,19.70
2019-05-02T12:42:42.022Z,19.70
2019-05-02T12:45:12.683Z,19.90
2019-05-02T12:47:42.771Z,19.60
2019-05-02T12:50:12.934Z,19.50
2019-05-02T12:52:42.864Z,19.40
2019-05-02T12:55:12.876Z,19.20
2019-05-02T12:57:42.980Z,19.70
2019-05-02T13:00:13.368Z,19.90
2019-05-02T13:02:47.431Z,20.20
2019-05-02T13:05:17.108Z,20.10
2019-05-02T13:07:50.503Z,19.70
2019-05-02T13:10:21.879Z,19.70
2019-05-02T13:12:53.196Z,19.40
2019-05-02T13:15:22.681Z,19.40
2019-05-02T13:17:52.317Z,19.50
2019-05-02T13:20:24.874Z,19.60
2019-05-02T13:23:05.575Z,19.30
2019-05-02T13:25:36.884Z,19.40
2019-05-02T13:28:06.423Z,19.40
2019-05-02T13:30:43.661Z,19.30
2019-05-02T13:33:13.305Z,19.20
2019-05-02T13:35:47.341Z,19.10
2019-05-02T13:38:18.784Z,18.90
2019-05-02T13:40:48.289Z,19.10
2019-05-02T13:43:18.050Z,19.30
2019-05-02T13:46:02.257Z,19.00
2019-05-02T13:48:32.321Z,18.90
2019-05-02T13:51:03.933Z,18.70
2019-05-02T13:53:35.161Z,19.10
2019-05-02T13:56:21.960Z,19.50
2019-05-02T13:58:54.508Z,19.60
2019-05-02T14:01:24.290Z,19.00
2019-05-02T14:04:03.594Z,18.70
2019-05-02T14:06:37.699Z,18.60
2019-05-02T14:09:23.886Z,18.60
2019-05-02T14:12:04.288Z,18.70
2019-05-02T14:14:33.681Z,19.30
2019-05-02T14:17:03.193Z,19.60
2019-05-02T14:19:35.502Z,19.30
2019-05-02T14:22:05.295Z,19.40
2019-05-02T14:24:34.789Z,19.60
2019-05-02T14:27:07.161Z,19.30
2019-05-02T14:29:35.622Z,19.20
2019-05-02T14:32:20.033Z,19.60
2019-05-02T14:34:42.480Z,19.70
2019-05-02T14:39:48.917Z,19.90
2019-05-02T14:42:22.210Z,20.30
2019-05-02T14:45:07.187Z,20.00
2019-05-02T14:47:22.412Z,19.50
2019-05-02T14:49:52.289Z,19.30
2019-05-02T14:52:23.089Z,19.40
2019-05-02T14:54:55.968Z,19.70
2019-05-02T14:57:27.227Z,19.40
2019-05-02T14:59:59.345Z,19.10
2019-05-02T15:02:39.225Z,18.90
2019-05-02T15:05:07.328Z,19.00
2019-05-02T15:07:38.515Z,19.10
2019-05-02T15:10:08.766Z,19.30
2019-05-02T15:12:41.774Z,19.90
2019-05-02T15:15:12.283Z,20.00
2019-05-02T15:17:42.004Z,19.80
2019-05-02T15:20:13.028Z,19.60
2019-05-02T15:22:42.826Z,19.50
2019-05-02T15:25:17.727Z,19.60
2019-05-02T15:27:45.304Z,19.70
2019-05-02T15:30:15.961Z,19.50
2019-05-02T15:33:03.336Z,19.30
2019-05-02T15:35:42.462Z,19.20
2019-05-02T15:38:18.385Z,19.00
2019-05-02T15:40:49.809Z,18.90
2019-05-02T15:43:14.020Z,19.00
2019-05-02T15:45:45.432Z,19.00
2019-05-02T15:48:22.617Z,19.10
2019-05-02T15:50:52.237Z,18.90
2019-05-02T15:53:27.387Z,18.90
2019-05-02T15:55:56.787Z,18.90
2019-05-02T15:58:28.125Z,18.70
2019-05-02T16:01:12.044Z,18.70
2019-05-02T16:03:46.089Z,18.70
2019-05-02T16:06:16.524Z,19.00
2019-05-02T16:08:46.582Z,18.60
2019-05-02T16:11:17.988Z,18.60
2019-05-02T16:13:54.067Z,18.60
2019-05-02T16:16:21.941Z,18.50
2019-05-02T16:18:52.593Z,18.80
2019-05-02T16:21:30.007Z,18.60
2019-05-02T16:24:16.314Z,18.60
2019-05-02T16:26:46.981Z,18.60
2019-05-02T16:29:23.332Z,18.50
2019-05-02T16:31:59.809Z,18.70
2019-05-02T16:34:33.826Z,18.40
2019-05-02T16:37:06.963Z,18.20
2019-05-02T16:39:34.674Z,18.30
2019-05-02T16:42:04.750Z,18.20
2019-05-02T16:44:34.622Z,18.20
2019-05-02T16:47:04.397Z,18.20
2019-05-02T16:49:33.901Z,18.10
2019-05-02T16:52:07.479Z,18.00
2019-05-02T16:54:41.534Z,17.80
2019-05-02T16:57:05.607Z,17.80
2019-05-02T16:59:35.356Z,17.70
2019-05-02T17:02:08.007Z,17.60
2019-05-02T17:04:38.706Z,17.70
2019-05-02T17:07:11.540Z,17.90
2019-05-02T17:09:55.054Z,17.80
2019-05-02T17:12:24.540Z,17.90
2019-05-02T17:15:13.694Z,17.90
2019-05-02T17:17:42.671Z,17.90
2019-05-02T17:20:16.538Z,17.80
2019-05-02T17:22:44.499Z,17.90
2019-05-02T17:25:18.361Z,17.70
2019-05-02T17:27:47.783Z,17.80
2019-05-02T17:30:18.222Z,17.80
2019-05-02T17:32:47.643Z,17.90
2019-05-02T17:35:17.467Z,17.80
2019-05-02T17:37:49.127Z,17.60
2019-05-02T17:40:22.573Z,17.60
2019-05-02T17:42:52.505Z,17.60
2019-05-02T17:45:23.905Z,17.70
2019-05-02T17:47:53.523Z,17.70
2019-05-02T17:50:32.966Z,17.70
2019-05-02T17:53:05.320Z,17.60
2019-05-02T17:55:40.417Z,17.60
2019-05-02T17:58:12.252Z,17.30
2019-05-02T18:00:39.654Z,17.30
2019-05-02T18:03:09.062Z,17.30
2019-05-02T18:05:38.671Z,17.20
2019-05-02T18:08:11.037Z,17.00
2019-05-02T18:10:39.229Z,16.90
2019-05-02T18:13:09.247Z,17.10
2019-05-02T18:15:39.409Z,16.80
2019-05-02T18:18:09.107Z,16.70
2019-05-02T18:20:42.628Z,16.80
2019-05-02T18:23:12.291Z,17.00
2019-05-02T18:25:43.324Z,16.60
2019-05-02T18:28:21.120Z,16.40
2019-05-02T18:30:44.772Z,16.60
2019-05-02T18:33:15.973Z,16.40
2019-05-02T18:35:46.995Z,16.70
2019-05-02T18:38:20.993Z,16.50
2019-05-02T18:40:48.935Z,16.60
2019-05-02T18:43:18.371Z,16.50
2019-05-02T18:45:51.543Z,16.50
2019-05-02T18:48:22.002Z,16.50
2019-05-02T18:50:52.933Z,16.50
2019-05-02T18:53:24.229Z,16.50
2019-05-02T18:55:56.807Z,16.30
2019-05-02T18:58:25.157Z,16.40
2019-05-02T19:00:56.146Z,16.30
2019-05-02T19:03:25.652Z,16.30
2019-05-02T19:05:57.541Z,16.30
2019-05-02T19:08:32.236Z,16.20
2019-05-02T19:11:09.007Z,16.10
2019-05-02T19:13:32.729Z,16.20
2019-05-02T19:16:02.298Z,16.10
2019-05-02T19:18:32.401Z,15.80
2019-05-02T19:21:05.791Z,16.10
2019-05-02T19:23:36.346Z,16.10
2019-05-02T19:26:10.182Z,16.00
2019-05-02T19:28:52.334Z,15.90
2019-05-02T19:31:22.469Z,15.80
2019-05-02T19:33:52.725Z,15.90
2019-05-02T19:36:27.545Z,16.00
2019-05-02T19:38:57.425Z,15.90
2019-05-02T19:41:26.731Z,15.80
2019-05-02T19:43:56.336Z,15.80
2019-05-02T19:46:34.502Z,15.90
2019-05-02T19:48:56.826Z,15.70
2019-05-02T19:51:28.143Z,15.60
2019-05-02T19:54:00.861Z,15.60
2019-05-02T19:56:38.108Z,15.70
2019-05-02T19:59:02.723Z,15.60
2019-05-02T20:01:32.495Z,15.50
2019-05-02T20:04:09.371Z,15.60
2019-05-02T20:06:41.842Z,15.60
2019-05-02T20:09:11.515Z,15.50
2019-05-02T20:11:42.554Z,15.60
2019-05-02T20:14:13.799Z,15.50
2019-05-02T20:16:48.258Z,15.60
2019-05-02T20:19:23.157Z,15.50
2019-05-02T20:21:57.031Z,15.50
2019-05-02T20:24:34.233Z,15.50
2019-05-02T20:27:14.427Z,15.60
2019-05-02T20:29:44.889Z,15.30
2019-05-02T20:32:14.717Z,15.30
2019-05-02T20:34:44.347Z,15.40
2019-05-02T20:37:14.661Z,15.30
2019-05-02T20:39:44.148Z,15.30
2019-05-02T20:42:13.612Z,15.30
2019-05-02T20:44:43.062Z,15.30
2019-05-02T20:47:15.776Z,15.20
2019-05-02T20:49:45.460Z,15.20
2019-05-02T20:52:14.875Z,15.20
2019-05-02T20:54:44.760Z,15.20
2019-05-02T20:57:17.466Z,15.20
2019-05-02T20:59:49.492Z,15.20
2019-05-02T21:02:21.203Z,15.20
2019-05-02T21:04:52.105Z,15.30
2019-05-02T21:07:33.049Z,15.20
2019-05-02T21:10:07.277Z,15.20
2019-05-02T21:12:36.889Z,15.10
2019-05-02T21:15:06.747Z,15.10
2019-05-02T21:17:36.167Z,15.00
2019-05-02T21:20:06.949Z,15.00
2019-05-02T21:22:36.439Z,15.00
2019-05-02T21:25:08.182Z,14.90
2019-05-02T21:27:38.451Z,14.90
2019-05-02T21:30:12.366Z,14.90
2019-05-02T21:32:44.491Z,14.90
2019-05-02T21:35:14.831Z,14.90
2019-05-02T21:37:44.718Z,14.90
2019-05-02T21:40:14.378Z,14.80
2019-05-02T21:42:44.254Z,14.90
2019-05-02T21:45:14.163Z,14.50
2019-05-02T21:47:46.336Z,14.60
2019-05-02T21:50:17.976Z,14.40
2019-05-02T21:52:53.161Z,13.80
2019-05-02T21:55:36.784Z,13.80
2019-05-02T21:58:06.175Z,13.60
2019-05-02T22:00:38.371Z,13.60
2019-05-02T22:03:08.793Z,13.50
2019-05-02T22:05:42.273Z,13.60
2019-05-02T22:08:12.696Z,13.70
2019-05-02T22:10:44.698Z,13.60
2019-05-02T22:13:15.718Z,13.60
2019-05-02T22:15:45.520Z,13.70
2019-05-02T22:18:15.076Z,13.80
2019-05-02T22:20:44.497Z,14.10
2019-05-02T22:23:14.351Z,14.00
2019-05-02T22:25:43.976Z,13.80
2019-05-02T22:28:14.416Z,13.90
2019-05-02T22:30:43.841Z,14.00
2019-05-02T22:33:13.420Z,13.60
2019-05-02T22:35:43.404Z,13.50
2019-05-02T22:38:33.830Z,13.70
2019-05-02T22:41:03.629Z,13.40
2019-05-02T22:43:33.150Z,13.40
2019-05-02T22:46:04.623Z,13.50
2019-05-02T22:48:34.207Z,13.70
2019-05-02T22:51:03.662Z,13.50
2019-05-02T22:53:33.039Z,13.40
2019-05-02T22:56:04.128Z,13.70
2019-05-02T22:58:33.679Z,13.40
2019-05-02T23:01:05.940Z,13.40
2019-05-02T23:03:35.376Z,13.30
2019-05-02T23:06:06.189Z,13.30
2019-05-02T23:08:35.786Z,13.20
2019-05-02T23:11:06.987Z,13.20
2019-05-02T23:13:38.776Z,12.80
2019-05-02T23:16:10.016Z,12.60
2019-05-02T23:18:39.390Z,12.40
2019-05-02T23:21:08.804Z,12.60
2019-05-02T23:23:38.514Z,12.50
2019-05-02T23:26:12.823Z,12.30
2019-05-02T23:28:44.515Z,12.30
2019-05-02T23:31:14.027Z,12.20
2019-05-02T23:33:59.172Z,12.60
2019-05-02T23:36:32.615Z,12.30
2019-05-02T23:39:02.282Z,12.00
2019-05-02T23:41:33.720Z,12.20
2019-05-02T23:44:03.215Z,12.10
2019-05-02T23:46:32.620Z,12.00
2019-05-02T23:49:02.236Z,12.20
2019-05-02T23:51:32.209Z,12.40
2019-05-02T23:54:02.214Z,12.20
2019-05-02T23:56:32.566Z,11.90
2019-05-02T23:59:02.774Z,11.80
